createdAt,value
2017-07-30T00:00:55.562Z,20.66
2017-07-30T00:01:51.840Z,20.62
2017-07-30T00:02:48.079Z,20.57
2017-07-30T00:03:44.339Z,20.54
2017-07-30T00:04:40.590Z,20.50
2017-07-30T00:05:36.855Z,20.48
2017-07-30T00:06:33.146Z,20.44
2017-07-30T00:07:29.395Z,20.41
2017-07-30T00:08:25.653Z,20.38
2017-07-30T00:09:21.903Z,20.35
2017-07-30T00:10:18.174Z,20.33
2017-07-30T00:11:14.423Z,20.31
2017-07-30T00:12:10.687Z,20.29
2017-07-30T00:13:06.930Z,20.27
2017-07-30T00:14:03.174Z,20.23
2017-07-30T00:14:59.422Z,20.21
2017-07-30T00:15:55.666Z,20.19
2017-07-30T00:16:51.933Z,20.17
2017-07-30T00:17:48.198Z,20.16
2017-07-30T00:18:44.456Z,20.14
2017-07-30T00:19:40.706Z,20.13
2017-07-30T00:20:36.975Z,20.10
2017-07-30T00:21:33.230Z,20.07
2017-07-30T00:22:29.958Z,20.07
2017-07-30T00:23:26.198Z,20.05
2017-07-30T00:24:22.458Z,20.03
2017-07-30T00:25:18.714Z,20.02
2017-07-30T00:26:14.990Z,20.01
2017-07-30T00:27:11.336Z,19.99
2017-07-30T00:28:07.606Z,19.97
2017-07-30T00:29:03.910Z,19.96
2017-07-30T00:30:00.303Z,19.94
2017-07-30T00:30:56.562Z,19.93
2017-07-30T00:31:52.806Z,19.92
2017-07-30T00:32:49.075Z,19.91
2017-07-30T00:33:45.314Z,19.90
2017-07-30T00:34:41.571Z,19.88
2017-07-30T00:35:37.819Z,19.87
2017-07-30T00:36:34.080Z,19.86
2017-07-30T00:37:30.330Z,19.86
2017-07-30T00:38:27.499Z,19.84
2017-07-30T00:39:23.746Z,19.84
2017-07-30T00:40:19.990Z,19.83
2017-07-30T00:41:16.251Z,19.82
2017-07-30T00:42:12.527Z,19.81
2017-07-30T00:43:08.810Z,19.80
2017-07-30T00:44:05.056Z,19.80
2017-07-30T00:45:01.479Z,19.79
2017-07-30T00:45:57.978Z,19.78
2017-07-30T00:46:54.234Z,19.76
2017-07-30T00:47:50.518Z,19.76
2017-07-30T00:48:46.802Z,19.76
2017-07-30T00:49:43.163Z,19.76
2017-07-30T00:50:39.747Z,19.75
2017-07-30T00:51:36.416Z,19.74
2017-07-30T00:52:32.779Z,19.73
2017-07-30T00:53:29.331Z,19.72
2017-07-30T00:54:25.986Z,19.71
2017-07-30T00:55:22.270Z,19.71
2017-07-30T00:56:18.519Z,19.70
2017-07-30T00:57:14.766Z,19.69
2017-07-30T00:58:11.013Z,19.68
2017-07-30T00:59:07.268Z,19.69
2017-07-30T01:00:03.498Z,19.68
2017-07-30T01:00:59.738Z,19.68
2017-07-30T01:01:55.978Z,19.67
2017-07-30T01:02:52.218Z,19.65
2017-07-30T01:03:48.493Z,19.65
2017-07-30T01:04:44.756Z,19.63
2017-07-30T01:05:40.986Z,19.63
2017-07-30T01:06:37.230Z,19.62
2017-07-30T01:07:33.474Z,19.61
2017-07-30T01:08:29.714Z,19.60
2017-07-30T01:09:27.483Z,19.60
2017-07-30T01:10:23.725Z,19.59
2017-07-30T01:11:19.966Z,19.57
2017-07-30T01:12:16.237Z,19.57
2017-07-30T01:13:12.694Z,19.57
2017-07-30T01:14:08.966Z,19.55
2017-07-30T01:15:05.206Z,19.55
2017-07-30T01:16:01.454Z,19.55
2017-07-30T01:16:57.693Z,19.53
2017-07-30T01:17:53.933Z,19.52
2017-07-30T01:18:50.170Z,19.51
2017-07-30T01:19:46.554Z,19.51
2017-07-30T01:20:42.810Z,19.51
2017-07-30T01:21:39.110Z,19.49
2017-07-30T01:22:35.373Z,19.49
2017-07-30T01:23:31.642Z,19.48
2017-07-30T01:24:28.202Z,19.47
2017-07-30T01:25:24.614Z,19.46
2017-07-30T01:26:20.853Z,19.45
2017-07-30T01:27:17.095Z,19.45
2017-07-30T01:28:13.354Z,19.44
2017-07-30T01:29:09.594Z,19.43
2017-07-30T01:30:05.865Z,19.42
2017-07-30T01:31:02.110Z,19.41
2017-07-30T01:31:58.367Z,19.40
2017-07-30T01:32:54.622Z,19.39
2017-07-30T01:33:50.869Z,19.38
2017-07-30T01:34:47.109Z,19.38
2017-07-30T01:35:43.377Z,19.37
2017-07-30T01:36:39.638Z,19.35
2017-07-30T01:37:35.894Z,19.36
2017-07-30T01:38:32.137Z,19.35
2017-07-30T01:39:28.413Z,19.34
2017-07-30T01:40:24.694Z,19.33
2017-07-30T01:41:20.945Z,19.32
2017-07-30T01:42:17.233Z,19.31
2017-07-30T01:43:13.486Z,19.31
2017-07-30T01:44:09.826Z,19.30
2017-07-30T01:45:06.070Z,19.28
2017-07-30T01:46:02.522Z,19.29
2017-07-30T01:46:58.810Z,19.27
2017-07-30T01:47:55.254Z,19.26
2017-07-30T01:48:52.005Z,19.25
2017-07-30T01:49:48.285Z,19.24
2017-07-30T01:50:45.255Z,19.24
2017-07-30T01:51:41.828Z,19.23
2017-07-30T01:52:38.175Z,19.22
2017-07-30T01:53:34.445Z,19.21
2017-07-30T01:54:31.035Z,19.20
2017-07-30T01:55:27.602Z,19.19
2017-07-30T01:56:24.178Z,19.18
2017-07-30T01:57:20.703Z,19.19
2017-07-30T01:58:17.188Z,19.17
2017-07-30T01:59:13.889Z,19.16
2017-07-30T02:00:10.231Z,19.14
2017-07-30T02:01:06.901Z,19.14
2017-07-30T02:02:03.415Z,19.14
2017-07-30T02:03:00.375Z,19.13
2017-07-30T02:03:56.764Z,19.11
2017-07-30T02:04:53.550Z,19.11
2017-07-30T02:05:50.311Z,19.10
2017-07-30T02:06:46.931Z,19.09
2017-07-30T02:07:43.916Z,19.10
2017-07-30T02:08:40.363Z,19.08
2017-07-30T02:09:36.800Z,19.07
2017-07-30T02:10:33.243Z,19.07
2017-07-30T02:11:29.655Z,19.06
2017-07-30T02:12:26.126Z,19.05
2017-07-30T02:13:22.723Z,19.04
2017-07-30T02:14:19.447Z,19.03
2017-07-30T02:15:16.018Z,19.02
2017-07-30T02:16:12.746Z,19.02
2017-07-30T02:17:09.231Z,19.01
2017-07-30T02:18:06.367Z,19.01
2017-07-30T02:19:02.727Z,18.99
2017-07-30T02:20:01.403Z,19.00
2017-07-30T02:20:59.105Z,18.98
2017-07-30T02:21:57.446Z,18.98
2017-07-30T02:22:54.155Z,18.96
2017-07-30T02:23:50.804Z,18.96
2017-07-30T02:24:47.307Z,18.93
2017-07-30T02:25:43.680Z,18.94
2017-07-30T02:26:40.440Z,18.93
2017-07-30T02:27:36.944Z,18.93
2017-07-30T02:28:33.800Z,18.92
2017-07-30T02:29:30.177Z,18.90
2017-07-30T02:30:26.848Z,18.89
2017-07-30T02:31:23.511Z,18.90
2017-07-30T02:32:20.652Z,18.88
2017-07-30T02:33:17.103Z,18.88
2017-07-30T02:34:13.582Z,18.88
2017-07-30T02:35:10.687Z,18.87
2017-07-30T02:36:07.142Z,18.86
2017-07-30T02:37:03.799Z,18.86
2017-07-30T02:38:00.380Z,18.86
2017-07-30T02:38:57.059Z,18.84
2017-07-30T02:39:53.852Z,18.82
2017-07-30T02:40:50.295Z,18.83
2017-07-30T02:41:46.967Z,18.81
2017-07-30T02:42:43.606Z,18.82
2017-07-30T02:43:40.224Z,18.80
2017-07-30T02:44:38.100Z,18.80
2017-07-30T02:45:34.462Z,18.80
2017-07-30T02:46:31.352Z,18.78
2017-07-30T02:47:27.901Z,18.79
2017-07-30T02:48:24.574Z,18.77
2017-07-30T02:49:21.314Z,18.78
2017-07-30T02:50:20.168Z,18.77
2017-07-30T02:51:16.587Z,18.76
2017-07-30T02:52:13.162Z,18.76
2017-07-30T02:53:09.530Z,18.74
2017-07-30T02:54:06.299Z,18.74
2017-07-30T02:55:03.210Z,18.73
2017-07-30T02:56:00.027Z,18.73
2017-07-30T02:56:56.355Z,18.72
2017-07-30T02:57:53.139Z,18.72
2017-07-30T02:58:49.831Z,18.69
2017-07-30T02:59:46.227Z,18.70
2017-07-30T03:00:42.703Z,18.69
2017-07-30T03:01:39.257Z,18.70
2017-07-30T03:02:35.615Z,18.68
2017-07-30T03:03:32.496Z,18.68
2017-07-30T03:04:28.992Z,18.67
2017-07-30T03:05:25.859Z,18.66
2017-07-30T03:06:22.681Z,18.66
2017-07-30T03:07:19.579Z,18.65
2017-07-30T03:08:16.298Z,18.65
2017-07-30T03:09:12.803Z,18.63
2017-07-30T03:10:09.577Z,18.62
2017-07-30T03:11:06.305Z,18.62
2017-07-30T03:12:02.859Z,18.62
2017-07-30T03:12:59.806Z,18.60
2017-07-30T03:13:56.671Z,18.59
2017-07-30T03:14:53.423Z,18.59
2017-07-30T03:15:50.631Z,18.58
2017-07-30T03:16:47.675Z,18.58
2017-07-30T03:17:44.706Z,18.56
2017-07-30T03:18:42.212Z,18.56
2017-07-30T03:19:38.675Z,18.54
2017-07-30T03:20:35.263Z,18.54
2017-07-30T03:21:31.782Z,18.54
2017-07-30T03:22:28.580Z,18.54
2017-07-30T03:23:25.044Z,18.53
2017-07-30T03:24:21.949Z,18.51
2017-07-30T03:25:18.534Z,18.51
2017-07-30T03:26:15.020Z,18.50
2017-07-30T03:27:11.435Z,18.49
2017-07-30T03:28:07.902Z,18.49
2017-07-30T03:29:04.418Z,18.48
2017-07-30T03:30:01.170Z,18.48
2017-07-30T03:30:57.477Z,18.46
2017-07-30T03:31:53.951Z,18.46
2017-07-30T03:32:50.687Z,18.46
2017-07-30T03:33:48.267Z,18.46
2017-07-30T03:34:44.948Z,18.45
2017-07-30T03:35:41.663Z,18.44
2017-07-30T03:36:38.028Z,18.44
2017-07-30T03:37:34.783Z,18.44
2017-07-30T03:38:31.833Z,18.43
2017-07-30T03:39:28.353Z,18.42
2017-07-30T03:40:24.762Z,18.41
2017-07-30T03:41:21.375Z,18.41
2017-07-30T03:42:17.831Z,18.39
2017-07-30T03:43:15.293Z,18.40
2017-07-30T03:44:11.850Z,18.40
2017-07-30T03:45:09.409Z,18.39
2017-07-30T03:46:06.040Z,18.39
2017-07-30T03:47:03.043Z,18.39
2017-07-30T03:48:01.283Z,18.38
2017-07-30T03:48:58.135Z,18.39
2017-07-30T03:49:54.631Z,18.38
2017-07-30T03:50:51.334Z,18.37
2017-07-30T03:51:47.770Z,18.37
2017-07-30T03:52:44.322Z,18.37
2017-07-30T03:53:40.706Z,18.38
2017-07-30T03:54:37.996Z,18.36
2017-07-30T03:55:34.626Z,18.37
2017-07-30T03:56:31.635Z,18.37
2017-07-30T03:57:28.251Z,18.37
2017-07-30T03:58:25.065Z,18.35
2017-07-30T03:59:21.856Z,18.36
2017-07-30T04:00:18.560Z,18.35
2017-07-30T04:01:15.154Z,18.35
2017-07-30T04:02:11.977Z,18.35
2017-07-30T04:03:08.614Z,18.34
2017-07-30T04:04:05.351Z,18.35
2017-07-30T04:05:02.614Z,18.34
2017-07-30T04:05:59.463Z,18.33
2017-07-30T04:06:56.740Z,18.34
2017-07-30T04:07:53.520Z,18.34
2017-07-30T04:08:50.373Z,18.34
2017-07-30T04:09:47.183Z,18.34
2017-07-30T04:10:45.568Z,18.35
2017-07-30T04:11:42.326Z,18.34
2017-07-30T04:12:39.420Z,18.34
2017-07-30T04:13:36.324Z,18.33
2017-07-30T04:14:32.718Z,18.33
2017-07-30T04:15:29.412Z,18.33
2017-07-30T04:16:26.423Z,18.33
2017-07-30T04:17:23.099Z,18.32
2017-07-30T04:18:19.857Z,18.32
2017-07-30T04:19:16.692Z,18.32
2017-07-30T04:20:13.919Z,18.31
2017-07-30T04:21:10.947Z,18.31
2017-07-30T04:22:07.937Z,18.33
2017-07-30T04:23:04.812Z,18.31
2017-07-30T04:24:01.556Z,18.32
2017-07-30T04:24:59.213Z,18.31
2017-07-30T04:25:55.906Z,18.31
2017-07-30T04:26:52.676Z,18.31
2017-07-30T04:27:49.691Z,18.30
2017-07-30T04:28:46.684Z,18.31
2017-07-30T04:29:43.283Z,18.31
2017-07-30T04:30:40.002Z,18.31
2017-07-30T04:31:36.463Z,18.31
2017-07-30T04:32:33.113Z,18.32
2017-07-30T04:33:29.856Z,18.32
2017-07-30T04:34:27.038Z,18.32
2017-07-30T04:35:24.124Z,18.32
2017-07-30T04:36:20.728Z,18.32
2017-07-30T04:37:17.557Z,18.31
2017-07-30T04:38:14.551Z,18.32
2017-07-30T04:39:12.240Z,18.31
2017-07-30T04:40:09.004Z,18.33
2017-07-30T04:41:06.227Z,18.32
2017-07-30T04:42:03.877Z,18.33
2017-07-30T04:43:00.796Z,18.32
2017-07-30T04:43:57.554Z,18.33
2017-07-30T04:44:54.905Z,18.33
2017-07-30T04:45:52.211Z,18.33
2017-07-30T04:46:48.998Z,18.34
2017-07-30T04:47:45.832Z,18.34
2017-07-30T04:48:43.299Z,18.34
2017-07-30T04:49:40.145Z,18.34
2017-07-30T04:50:37.406Z,18.35
2017-07-30T04:51:34.083Z,18.35
2017-07-30T04:52:30.353Z,18.36
2017-07-30T04:53:26.594Z,18.37
2017-07-30T04:54:22.875Z,18.38
2017-07-30T04:55:19.143Z,18.37
2017-07-30T04:56:15.379Z,18.38
2017-07-30T04:57:11.634Z,18.39
2017-07-30T04:58:07.883Z,18.40
2017-07-30T04:59:04.160Z,18.41
2017-07-30T05:00:00.422Z,18.41
2017-07-30T05:00:56.695Z,18.41
2017-07-30T05:01:52.959Z,18.43
2017-07-30T05:02:49.208Z,18.44
2017-07-30T05:03:45.454Z,18.44
2017-07-30T05:04:41.722Z,18.46
2017-07-30T05:05:37.995Z,18.48
2017-07-30T05:06:34.243Z,18.48
2017-07-30T05:07:30.477Z,18.50
2017-07-30T05:08:26.713Z,18.51
2017-07-30T05:09:22.958Z,18.53
2017-07-30T05:10:19.227Z,18.54
2017-07-30T05:11:15.462Z,18.53
2017-07-30T05:12:11.703Z,18.55
2017-07-30T05:13:07.935Z,18.56
2017-07-30T05:14:04.191Z,18.57
2017-07-30T05:15:00.471Z,18.58
2017-07-30T05:15:56.735Z,18.60
2017-07-30T05:16:52.982Z,18.60
2017-07-30T05:17:49.229Z,18.62
2017-07-30T05:18:45.483Z,18.64
2017-07-30T05:19:41.746Z,18.65
2017-07-30T05:20:37.986Z,18.67
2017-07-30T05:21:34.238Z,18.69
2017-07-30T05:22:30.483Z,18.70
2017-07-30T05:23:26.718Z,18.72
2017-07-30T05:24:22.958Z,18.74
2017-07-30T05:25:19.218Z,18.76
2017-07-30T05:26:15.458Z,18.78
2017-07-30T05:27:11.730Z,18.79
2017-07-30T05:28:07.970Z,18.82
2017-07-30T05:29:04.223Z,18.84
2017-07-30T05:30:00.466Z,18.87
2017-07-30T05:30:56.706Z,18.88
2017-07-30T05:31:52.961Z,18.92
2017-07-30T05:32:49.206Z,18.95
2017-07-30T05:33:45.454Z,18.98
2017-07-30T05:34:41.706Z,19.01
2017-07-30T05:35:37.956Z,19.02
2017-07-30T05:36:34.204Z,19.07
2017-07-30T05:37:30.463Z,19.10
2017-07-30T05:38:26.696Z,19.13
2017-07-30T05:39:22.948Z,19.16
2017-07-30T05:40:19.210Z,19.21
2017-07-30T05:41:15.454Z,19.25
2017-07-30T05:42:11.720Z,19.29
2017-07-30T05:43:07.970Z,19.33
2017-07-30T05:44:04.210Z,19.37
2017-07-30T05:45:00.474Z,19.42
2017-07-30T05:45:56.718Z,19.47
2017-07-30T05:46:52.967Z,19.51
2017-07-30T05:47:49.239Z,19.57
2017-07-30T05:48:45.486Z,19.61
2017-07-30T05:49:41.774Z,19.66
2017-07-30T05:50:38.027Z,19.80
2017-07-30T05:51:34.276Z,20.06
2017-07-30T05:52:30.513Z,20.35
2017-07-30T05:53:26.767Z,20.58
2017-07-30T05:54:23.010Z,20.78
2017-07-30T05:55:19.242Z,20.96
2017-07-30T05:56:15.503Z,21.10
2017-07-30T05:57:11.754Z,21.24
2017-07-30T05:58:08.034Z,21.35
2017-07-30T05:59:04.283Z,21.48
2017-07-30T06:00:00.762Z,21.58
2017-07-30T06:00:57.018Z,21.69
2017-07-30T06:01:53.266Z,21.77
2017-07-30T06:02:50.405Z,21.85
2017-07-30T06:03:46.711Z,21.94
2017-07-30T06:04:42.959Z,22.02
2017-07-30T06:05:39.198Z,22.11
2017-07-30T06:06:35.434Z,22.16
2017-07-30T06:07:31.690Z,22.24
2017-07-30T06:08:27.976Z,22.30
2017-07-30T06:09:24.238Z,22.36
2017-07-30T06:10:20.486Z,22.40
2017-07-30T06:11:16.728Z,22.46
2017-07-30T06:12:12.987Z,22.52
2017-07-30T06:13:09.227Z,22.56
2017-07-30T06:14:05.483Z,22.61
2017-07-30T06:15:01.753Z,22.66
2017-07-30T06:15:58.004Z,22.70
2017-07-30T06:16:54.245Z,22.73
2017-07-30T06:17:50.486Z,22.79
2017-07-30T06:18:46.763Z,22.82
2017-07-30T06:19:43.018Z,22.86
2017-07-30T06:20:39.354Z,22.89
2017-07-30T06:21:35.597Z,22.91
2017-07-30T06:22:31.850Z,22.94
2017-07-30T06:23:28.095Z,22.96
2017-07-30T06:24:24.363Z,22.97
2017-07-30T06:25:20.606Z,23.00
2017-07-30T06:26:16.854Z,23.01
2017-07-30T06:27:13.090Z,23.03
2017-07-30T06:28:09.334Z,23.03
2017-07-30T06:29:05.607Z,23.06
2017-07-30T06:30:01.863Z,23.06
2017-07-30T06:30:58.123Z,23.10
2017-07-30T06:31:54.367Z,23.09
2017-07-30T06:32:50.615Z,23.11
2017-07-30T06:33:46.855Z,23.13
2017-07-30T06:34:43.113Z,23.14
2017-07-30T06:35:39.357Z,23.15
2017-07-30T06:36:35.603Z,23.19
2017-07-30T06:37:31.848Z,23.19
2017-07-30T06:38:28.096Z,23.20
2017-07-30T06:39:24.346Z,23.21
2017-07-30T06:40:21.479Z,23.23
2017-07-30T06:41:17.719Z,23.25
2017-07-30T06:42:13.980Z,23.28
2017-07-30T06:43:10.234Z,23.28
2017-07-30T06:44:06.499Z,23.31
2017-07-30T06:45:02.743Z,23.32
2017-07-30T06:45:59.022Z,23.34
2017-07-30T06:46:55.291Z,23.35
2017-07-30T06:47:51.546Z,23.37
2017-07-30T06:48:47.798Z,23.38
2017-07-30T06:49:44.915Z,23.40
2017-07-30T06:50:41.175Z,23.41
2017-07-30T06:51:37.426Z,23.42
2017-07-30T06:52:33.842Z,23.43
2017-07-30T06:53:30.102Z,23.44
2017-07-30T06:54:26.334Z,23.46
2017-07-30T06:55:22.618Z,23.47
2017-07-30T06:56:18.890Z,23.50
2017-07-30T06:57:15.146Z,23.52
2017-07-30T06:58:11.383Z,23.53
2017-07-30T06:59:07.666Z,23.55
2017-07-30T07:00:03.931Z,23.55
2017-07-30T07:01:00.194Z,23.58
2017-07-30T07:01:56.453Z,23.60
2017-07-30T07:02:52.702Z,23.62
2017-07-30T07:03:49.003Z,23.63
2017-07-30T07:04:45.389Z,23.65
2017-07-30T07:05:41.643Z,23.66
2017-07-30T07:06:37.902Z,23.66
2017-07-30T07:07:34.150Z,23.70
2017-07-30T07:08:30.399Z,23.73
2017-07-30T07:09:26.648Z,23.74
2017-07-30T07:10:23.985Z,23.76
2017-07-30T07:11:20.334Z,23.76
2017-07-30T07:12:16.570Z,23.78
2017-07-30T07:13:13.442Z,23.81
2017-07-30T07:14:09.699Z,23.82
2017-07-30T07:15:05.933Z,23.86
2017-07-30T07:16:02.182Z,23.88
2017-07-30T07:16:58.762Z,23.91
2017-07-30T07:17:55.002Z,23.93
2017-07-30T07:18:51.242Z,23.96
2017-07-30T07:19:47.478Z,23.98
2017-07-30T07:20:43.819Z,24.02
2017-07-30T07:21:40.130Z,24.05
2017-07-30T07:22:36.386Z,24.08
2017-07-30T07:23:32.635Z,24.10
2017-07-30T07:24:29.414Z,24.12
2017-07-30T07:25:25.658Z,24.16
2017-07-30T07:26:21.906Z,24.18
2017-07-30T07:27:18.163Z,24.20
2017-07-30T07:28:14.426Z,24.23
2017-07-30T07:29:10.686Z,24.25
2017-07-30T07:30:06.922Z,24.28
2017-07-30T07:31:04.043Z,24.30
2017-07-30T07:32:00.303Z,24.32
2017-07-30T07:32:56.570Z,24.34
2017-07-30T07:33:52.942Z,24.38
2017-07-30T07:34:49.198Z,24.38
2017-07-30T07:35:45.454Z,24.41
2017-07-30T07:36:41.699Z,24.43
2017-07-30T07:37:37.998Z,24.45
2017-07-30T07:38:34.270Z,24.49
2017-07-30T07:39:30.518Z,24.52
2017-07-30T07:40:26.938Z,24.54
2017-07-30T07:41:23.182Z,24.57
2017-07-30T07:42:19.595Z,24.59
2017-07-30T07:43:15.874Z,24.61
2017-07-30T07:44:12.146Z,24.63
2017-07-30T07:45:11.624Z,24.65
2017-07-30T07:46:07.898Z,24.67
2017-07-30T07:47:04.151Z,24.70
2017-07-30T07:48:00.398Z,24.75
2017-07-30T07:48:56.658Z,24.78
2017-07-30T07:49:52.926Z,24.82
2017-07-30T07:50:49.190Z,24.85
2017-07-30T07:51:45.447Z,24.87
2017-07-30T07:52:41.691Z,24.91
2017-07-30T07:53:37.979Z,24.95
2017-07-30T07:54:34.287Z,24.98
2017-07-30T07:55:30.547Z,25.01
2017-07-30T07:56:26.812Z,25.04
2017-07-30T07:57:23.070Z,25.07
2017-07-30T07:58:19.331Z,25.10
2017-07-30T07:59:15.609Z,25.14
2017-07-30T08:00:11.862Z,25.17
2017-07-30T08:01:08.103Z,25.21
2017-07-30T08:02:04.391Z,25.23
2017-07-30T08:03:00.665Z,25.25
2017-07-30T08:03:56.914Z,25.30
2017-07-30T08:04:53.188Z,25.34
2017-07-30T08:05:49.454Z,25.36
2017-07-30T08:06:45.702Z,25.39
2017-07-30T08:07:41.959Z,25.42
2017-07-30T08:08:38.219Z,25.45
2017-07-30T08:09:34.539Z,25.47
2017-07-30T08:10:30.818Z,25.48
2017-07-30T08:11:27.062Z,25.51
2017-07-30T08:12:23.304Z,25.53
2017-07-30T08:13:19.558Z,25.54
2017-07-30T08:14:15.819Z,25.56
2017-07-30T08:15:12.994Z,25.58
2017-07-30T08:16:09.250Z,25.60
2017-07-30T08:17:05.491Z,25.64
2017-07-30T08:18:01.762Z,25.66
2017-07-30T08:18:58.024Z,25.68
2017-07-30T08:19:55.480Z,25.69
2017-07-30T08:20:51.831Z,25.71
2017-07-30T08:21:48.118Z,25.72
2017-07-30T08:22:44.387Z,25.73
2017-07-30T08:23:40.634Z,25.75
2017-07-30T08:24:36.922Z,25.76
2017-07-30T08:25:33.166Z,25.78
2017-07-30T08:26:29.419Z,25.78
2017-07-30T08:27:26.578Z,25.80
2017-07-30T08:28:22.850Z,25.82
2017-07-30T08:29:19.139Z,25.84
2017-07-30T08:30:15.419Z,25.83
2017-07-30T08:31:11.675Z,25.86
2017-07-30T08:32:07.936Z,25.88
2017-07-30T08:33:05.199Z,25.90
2017-07-30T08:34:01.488Z,25.92
2017-07-30T08:34:57.738Z,25.92
2017-07-30T08:35:54.023Z,25.95
2017-07-30T08:36:50.278Z,25.96
2017-07-30T08:37:46.526Z,25.98
2017-07-30T08:38:45.579Z,25.98
2017-07-30T08:39:41.835Z,26.01
2017-07-30T08:40:38.094Z,26.02
2017-07-30T08:41:34.362Z,26.02
2017-07-30T08:42:30.620Z,26.03
2017-07-30T08:43:26.880Z,26.06
2017-07-30T08:44:23.210Z,26.07
2017-07-30T08:45:19.507Z,26.08
2017-07-30T08:46:15.792Z,26.10
2017-07-30T08:47:12.110Z,26.12
2017-07-30T08:48:08.383Z,26.14
2017-07-30T08:49:05.784Z,26.14
2017-07-30T08:50:02.055Z,26.17
2017-07-30T08:50:58.316Z,26.18
2017-07-30T08:51:54.595Z,26.20
2017-07-30T08:52:50.855Z,26.22
2017-07-30T08:53:47.117Z,26.25
2017-07-30T08:54:44.134Z,26.28
2017-07-30T08:55:40.406Z,26.30
2017-07-30T08:56:36.689Z,26.36
2017-07-30T08:57:32.947Z,26.40
2017-07-30T08:58:29.214Z,26.45
2017-07-30T08:59:25.463Z,26.50
2017-07-30T09:00:21.746Z,26.56
2017-07-30T09:01:17.998Z,26.61
2017-07-30T09:02:14.313Z,26.68
2017-07-30T09:03:10.606Z,26.77
2017-07-30T09:04:06.987Z,26.84
2017-07-30T09:05:03.659Z,26.94
2017-07-30T09:06:01.045Z,27.04
2017-07-30T09:06:58.368Z,27.16
2017-07-30T09:07:57.141Z,27.26
2017-07-30T09:08:54.539Z,27.38
2017-07-30T09:09:52.885Z,27.52
2017-07-30T09:10:50.736Z,27.64
2017-07-30T09:11:47.892Z,27.75
2017-07-30T09:12:46.197Z,27.87
2017-07-30T09:13:42.723Z,27.94
2017-07-30T09:14:39.437Z,27.99
2017-07-30T09:15:36.508Z,28.04
2017-07-30T09:16:33.086Z,28.10
2017-07-30T09:17:29.628Z,28.17
2017-07-30T09:18:26.039Z,28.24
2017-07-30T09:19:22.942Z,28.28
2017-07-30T09:20:19.740Z,28.31
2017-07-30T09:21:16.283Z,28.35
2017-07-30T09:22:12.594Z,28.40
2017-07-30T09:23:08.974Z,28.41
2017-07-30T09:24:05.723Z,28.46
2017-07-30T09:25:02.039Z,28.51
2017-07-30T09:25:58.478Z,28.55
2017-07-30T09:26:54.889Z,28.61
2017-07-30T09:27:53.438Z,28.64
2017-07-30T09:28:50.204Z,28.73
2017-07-30T09:29:46.809Z,28.79
2017-07-30T09:30:43.310Z,28.85
2017-07-30T09:31:39.795Z,28.92
2017-07-30T09:32:36.754Z,28.99
2017-07-30T09:33:33.552Z,29.06
2017-07-30T09:34:30.323Z,29.11
2017-07-30T09:35:27.186Z,29.19
2017-07-30T09:36:24.065Z,29.25
2017-07-30T09:37:20.637Z,29.32
2017-07-30T09:38:17.398Z,29.38
2017-07-30T09:39:14.113Z,29.45
2017-07-30T09:40:10.761Z,29.52
2017-07-30T09:41:07.347Z,29.61
2017-07-30T09:42:05.204Z,29.68
2017-07-30T09:43:02.149Z,29.78
2017-07-30T09:43:59.140Z,29.85
2017-07-30T09:44:58.902Z,29.93
2017-07-30T09:45:55.439Z,30.01
2017-07-30T09:46:51.936Z,30.08
2017-07-30T09:47:48.700Z,30.15
2017-07-30T09:48:45.639Z,30.23
2017-07-30T09:49:43.267Z,30.32
2017-07-30T09:50:41.025Z,30.37
2017-07-30T09:51:38.157Z,30.42
2017-07-30T09:52:36.156Z,30.47
2017-07-30T09:53:33.515Z,30.51
2017-07-30T09:54:30.122Z,30.55
2017-07-30T09:55:26.770Z,30.63
2017-07-30T09:56:23.314Z,30.68
2017-07-30T09:57:19.857Z,30.72
2017-07-30T09:58:16.259Z,30.76
2017-07-30T09:59:12.609Z,30.78
2017-07-30T10:00:09.110Z,30.81
2017-07-30T10:01:05.681Z,30.82
2017-07-30T10:02:02.486Z,30.83
2017-07-30T10:02:59.124Z,30.83
2017-07-30T10:03:55.943Z,30.83
2017-07-30T10:04:52.799Z,30.84
2017-07-30T10:05:49.660Z,30.86
2017-07-30T10:06:46.955Z,30.90
2017-07-30T10:07:43.606Z,30.94
2017-07-30T10:08:44.718Z,31.00
2017-07-30T10:09:41.203Z,31.04
2017-07-30T10:10:37.623Z,31.08
2017-07-30T10:11:34.022Z,31.13
2017-07-30T10:12:33.470Z,31.18
2017-07-30T10:13:30.031Z,31.21
2017-07-30T10:14:27.358Z,31.22
2017-07-30T10:15:24.710Z,31.20
2017-07-30T10:16:21.311Z,31.20
2017-07-30T10:17:17.588Z,31.19
2017-07-30T10:18:13.848Z,31.17
2017-07-30T10:19:13.957Z,31.16
2017-07-30T10:20:11.486Z,31.15
2017-07-30T10:21:08.163Z,31.13
2017-07-30T10:22:05.196Z,31.13
2017-07-30T10:23:01.455Z,31.14
2017-07-30T10:23:57.791Z,31.14
2017-07-30T10:24:55.551Z,31.13
2017-07-30T10:25:52.283Z,31.12
2017-07-30T10:26:52.685Z,31.11
2017-07-30T10:27:50.830Z,31.11
2017-07-30T10:28:47.173Z,31.12
2017-07-30T10:29:44.394Z,31.13
2017-07-30T10:30:40.942Z,31.13
2017-07-30T10:31:37.615Z,31.11
2017-07-30T10:32:35.662Z,31.09
2017-07-30T10:33:32.002Z,31.06
2017-07-30T10:35:42.134Z,31.03
2017-07-30T10:36:39.349Z,31.01
2017-07-30T10:37:36.932Z,30.99
2017-07-30T10:38:34.387Z,30.96
2017-07-30T10:39:32.250Z,30.90
2017-07-30T10:40:29.335Z,30.83
2017-07-30T10:41:37.295Z,30.75
2017-07-30T10:42:36.185Z,30.67
2017-07-30T10:43:33.500Z,30.54
2017-07-30T10:44:30.965Z,30.43
2017-07-30T10:45:29.625Z,30.35
2017-07-30T10:46:28.199Z,30.25
2017-07-30T10:47:28.888Z,30.18
2017-07-30T10:48:26.161Z,30.10
2017-07-30T10:49:25.008Z,30.04
2017-07-30T10:50:22.281Z,29.97
2017-07-30T10:51:33.165Z,29.93
2017-07-30T10:52:41.467Z,29.89
2017-07-30T10:55:07.454Z,29.90
2017-07-30T10:56:03.698Z,29.93
2017-07-30T10:56:59.987Z,29.97
2017-07-30T10:57:56.261Z,30.00
2017-07-30T10:58:52.510Z,30.05
2017-07-30T10:59:48.770Z,30.08
2017-07-30T11:00:45.047Z,30.11
2017-07-30T11:01:41.326Z,30.16
2017-07-30T11:02:37.614Z,30.19
2017-07-30T11:03:33.944Z,30.23
2017-07-30T11:04:30.370Z,30.29
2017-07-30T11:05:26.636Z,30.32
2017-07-30T11:06:22.890Z,30.37
2017-07-30T11:07:19.137Z,30.42
2017-07-30T11:08:15.431Z,30.50
2017-07-30T11:09:11.707Z,30.55
2017-07-30T11:10:07.954Z,30.64
2017-07-30T11:11:04.214Z,30.70
2017-07-30T11:12:05.703Z,30.74
2017-07-30T11:13:05.615Z,30.80
2017-07-30T11:15:17.189Z,30.87
2017-07-30T11:17:28.883Z,30.94
2017-07-30T11:18:25.310Z,30.96
2017-07-30T11:19:21.570Z,30.93
2017-07-30T11:20:17.814Z,30.90
2017-07-30T11:21:14.079Z,30.85
2017-07-30T11:23:25.674Z,30.78
2017-07-30T11:24:21.926Z,30.77
2017-07-30T11:25:18.190Z,30.78
2017-07-30T11:26:14.599Z,30.77
2017-07-30T11:27:10.851Z,30.77
2017-07-30T11:28:07.118Z,30.74
2017-07-30T11:29:03.398Z,30.69
2017-07-30T11:29:59.678Z,30.63
2017-07-30T11:30:55.939Z,30.58
2017-07-30T11:31:52.186Z,30.54
2017-07-30T11:32:48.458Z,30.50
2017-07-30T11:33:44.738Z,30.45
2017-07-30T11:34:40.991Z,30.40
2017-07-30T11:35:37.246Z,30.37
2017-07-30T11:36:33.508Z,30.32
2017-07-30T11:37:29.767Z,30.27
2017-07-30T11:38:26.027Z,30.21
2017-07-30T11:39:22.286Z,30.14
2017-07-30T11:40:18.543Z,30.07
2017-07-30T11:41:14.804Z,29.98
2017-07-30T11:42:11.079Z,29.90
2017-07-30T11:43:07.322Z,29.79
2017-07-30T11:44:03.611Z,29.71
2017-07-30T11:45:00.285Z,29.60
2017-07-30T11:45:56.527Z,29.50
2017-07-30T11:46:52.786Z,29.39
2017-07-30T11:47:49.044Z,29.29
2017-07-30T11:48:45.299Z,29.20
2017-07-30T11:49:41.583Z,29.10
2017-07-30T11:50:37.825Z,29.00
2017-07-30T11:51:34.073Z,28.92
2017-07-30T11:52:30.323Z,28.83
2017-07-30T11:53:26.578Z,28.76
2017-07-30T11:54:22.841Z,28.67
2017-07-30T11:55:19.170Z,28.61
2017-07-30T11:56:15.435Z,28.54
2017-07-30T11:57:11.695Z,28.47
2017-07-30T11:58:07.960Z,28.42
2017-07-30T11:59:04.205Z,28.37
2017-07-30T12:00:00.570Z,28.32
2017-07-30T12:00:56.822Z,28.26
2017-07-30T12:01:53.067Z,28.22
2017-07-30T12:02:49.322Z,28.18
2017-07-30T12:03:45.567Z,28.14
2017-07-30T12:04:41.831Z,28.08
2017-07-30T12:05:38.098Z,28.03
2017-07-30T12:06:34.350Z,27.98
2017-07-30T12:07:30.594Z,27.92
2017-07-30T12:08:26.842Z,27.89
2017-07-30T12:09:23.081Z,27.85
2017-07-30T12:10:19.330Z,27.79
2017-07-30T12:11:15.587Z,27.73
2017-07-30T12:12:11.839Z,27.68
2017-07-30T12:13:08.263Z,27.62
2017-07-30T12:14:04.511Z,27.56
2017-07-30T12:15:00.766Z,27.48
2017-07-30T12:15:57.046Z,27.41